Time;durP1;ratioP1;P1;durP2;ratioP2;P2;SDS_P1;SDS_P2;PMS_P1;PMS_P2;Temp;Humidity;BMP_temperature;BMP_pressure;BME280_temperature;BME280_humidity;BME280_pressure;Samples;Min_cycle;Max_cycle;Signal;HPM_P1;HPM_P2
2022/04/15 00:00:42;;;;;;;5.53;4.03;;;6.70;99.90;;;;;;4975122;28;20046;-61
2022/04/15 00:03:08;;;;;;;5.07;4.35;;;6.70;99.90;;;;;;4970640;28;20035;-61
2022/04/15 00:05:37;;;;;;;6.55;3.30;;;6.80;99.90;;;;;;4955591;28;20055;-61
2022/04/15 00:08:03;;;;;;;5.00;4.15;;;6.90;99.90;;;;;;4956098;29;20098;-61
2022/04/15 00:10:29;;;;;;;7.65;4.13;;;6.60;99.90;;;;;;4955843;29;20039;-61
2022/04/15 00:12:55;;;;;;;7.85;3.88;;;6.70;99.90;;;;;;4955986;29;20038;-61
2022/04/15 00:15:21;;;;;;;5.07;3.72;;;6.80;99.90;;;;;;4956063;29;20035;-61
2022/04/15 00:17:46;;;;;;;4.43;3.50;;;6.80;99.90;;;;;;4955709;29;20039;-61
2022/04/15 00:20:13;;;;;;;7.00;4.18;;;6.70;99.90;;;;;;4955895;29;20122;-61
2022/04/15 00:22:39;;;;;;;6.55;3.42;;;6.70;99.90;;;;;;4955804;29;20051;-61
2022/04/15 00:25:05;;;;;;;5.43;3.78;;;;;;;;;;4955457;29;20043;-61
2022/04/15 00:27:31;;;;;;;3.67;2.50;;;6.60;99.90;;;;;;4938539;29;20081;-61
2022/04/15 00:29:56;;;;;;;5.95;3.15;;;6.70;99.90;;;;;;4955652;29;20095;-61
2022/04/15 00:32:22;;;;;;;2.70;2.50;;;6.40;99.90;;;;;;4955944;29;20047;-61
2022/04/15 00:34:47;;;;;;;3.60;3.08;;;6.30;99.90;;;;;;4955666;29;20496;-61
2022/04/15 00:37:13;;;;;;;6.93;4.18;;;6.20;99.90;;;;;;4955511;29;20094;-61
2022/04/15 00:39:45;;;;;;;5.32;4.82;;;6.30;99.90;;;;;;4938487;29;20130;-61
2022/04/15 00:42:10;;;;;;;7.93;5.28;;;6.20;99.90;;;;;;4955208;29;20445;-61
2022/04/15 00:44:36;;;;;;;8.15;5.25;;;6.30;99.90;;;;;;4956447;28;20098;-61
2022/04/15 00:47:13;;;;;;;6.18;4.20;;;6.20;99.90;;;;;;4957352;28;20431;-61
2022/04/15 00:49:39;;;;;;;5.97;5.03;;;6.20;99.90;;;;;;4974797;28;20046;-61
2022/04/15 00:52:07;;;;;;;7.22;5.35;;;6.30;99.90;;;;;;4974353;28;20069;-61
2022/04/15 00:54:34;;;;;;;8.00;5.88;;;6.20;99.90;;;;;;4957142;28;20497;-61
2022/04/15 00:57:02;;;;;;;9.02;5.82;;;6.00;99.90;;;;;;4974706;28;20098;-61
2022/04/15 00:59:29;;;;;;;6.68;5.35;;;6.30;99.90;;;;;;4963714;28;20082;-61
2022/04/15 01:01:54;;;;;;;7.53;5.13;;;6.00;99.90;;;;;;4955180;29;20039;-61
2022/04/15 01:04:22;;;;;;;7.80;4.68;;;6.20;99.90;;;;;;4937795;29;20066;-60
2022/04/15 01:06:50;;;;;;;6.82;5.68;;;6.10;99.90;;;;;;4954716;28;20039;-61
2022/04/15 01:09:17;;;;;;;14.98;5.88;;;6.20;99.90;;;;;;4954765;29;20078;-61
2022/04/15 01:11:44;;;;;;;8.82;5.32;;;6.00;99.90;;;;;;4937699;29;20051;-61
2022/04/15 01:14:11;;;;;;;9.77;4.80;;;6.10;99.90;;;;;;4937861;29;20050;-61
2022/04/15 01:16:37;;;;;;;5.85;4.85;;;6.10;99.90;;;;;;4955232;29;20074;-62
2022/04/15 01:19:03;;;;;;;6.30;4.53;;;6.20;99.90;;;;;;4937788;29;20075;-60
2022/04/15 01:21:32;;;;;;;6.95;4.65;;;6.00;99.90;;;;;;4937673;29;20060;-61
2022/04/15 01:23:58;;;;;;;5.20;4.68;;;6.00;99.90;;;;;;4954358;29;20414;-61
2022/04/15 01:26:24;;;;;;;6.57;4.05;;;6.00;99.90;;;;;;4938031;29;20394;-61
2022/04/15 01:28:49;;;;;;;5.60;4.45;;;5.90;99.90;;;;;;4954812;29;20042;-61
2022/04/15 01:31:15;;;;;;;6.30;4.82;;;5.90;99.90;;;;;;4937608;29;20043;-61
2022/04/15 01:33:40;;;;;;;7.57;5.57;;;5.90;99.90;;;;;;4954724;29;20039;-61
2022/04/15 01:36:06;;;;;;;6.72;5.78;;;6.00;99.90;;;;;;4954890;29;20039;-61
2022/04/15 01:38:33;;;;;;;9.50;5.18;;;5.90;99.90;;;;;;4937774;29;20040;-61
2022/04/15 01:40:58;;;;;;;8.18;5.18;;;6.00;99.90;;;;;;4954704;29;20047;-61
2022/04/15 01:43:24;;;;;;;6.70;5.00;;;6.00;99.90;;;;;;4954885;29;20094;-61
2022/04/15 01:45:49;;;;;;;7.90;5.20;;;6.20;99.90;;;;;;4965213;28;20034;-60
2022/04/15 01:48:15;;;;;;;5.78;5.15;;;6.00;99.90;;;;;;4973960;28;20489;-62
2022/04/15 01:50:40;;;;;;;8.13;5.60;;;5.90;99.90;;;;;;4943515;29;20078;-62
2022/04/15 01:53:06;;;;;;;10.13;5.88;;;6.10;99.90;;;;;;4954561;29;20118;-62
2022/04/15 01:55:32;;;;;;;8.57;5.93;;;6.00;99.90;;;;;;4954429;29;20502;-62
2022/04/15 01:57:57;;;;;;;9.30;5.93;;;6.10;99.90;;;;;;4950249;28;20043;-62
2022/04/15 02:00:23;;;;;;;9.65;5.70;;;6.20;99.90;;;;;;4956747;28;20131;-62
2022/04/15 02:02:49;;;;;;;10.32;5.38;;;6.20;99.90;;;;;;4954610;29;20197;-62
2022/04/15 02:05:14;;;;;;;7.28;5.75;;;6.30;99.90;;;;;;4954263;29;20465;-62
2022/04/15 02:07:40;;;;;;;9.38;5.35;;;;;;;;;;4954507;29;20058;-62
2022/04/15 02:10:07;;;;;;;6.78;5.78;;;6.30;99.90;;;;;;4954540;29;20051;-62
2022/04/15 02:12:32;;;;;;;8.30;6.25;;;6.40;99.90;;;;;;4937134;29;20094;-62
2022/04/15 02:14:58;;;;;;;12.50;6.13;;;6.20;99.90;;;;;;4954789;29;20047;-62
2022/04/15 02:17:24;;;;;;;11.73;6.10;;;6.50;99.90;;;;;;4954452;29;20047;-62
2022/04/15 02:19:52;;;;;;;8.77;6.35;;;;;;;;;;4956644;28;20801;-62
2022/04/15 02:22:18;;;;;;;7.97;6.68;;;;;;;;;;4957962;29;20514;-62
2022/04/15 02:24:43;;;;;;;10.13;7.13;;;6.50;99.90;;;;;;4957851;29;20118;-62
2022/04/15 02:27:09;;;;;;;11.98;7.13;;;6.50;99.90;;;;;;4941107;29;20370;-62
2022/04/15 02:29:35;;;;;;;13.73;6.65;;;6.60;99.90;;;;;;4958034;29;20086;-62
2022/04/15 02:32:00;;;;;;;13.10;7.05;;;6.70;99.90;;;;;;4957822;29;20118;-62
2022/04/15 02:34:26;;;;;;;11.38;7.40;;;6.70;99.90;;;;;;4940794;29;20051;-62
2022/04/15 02:36:51;;;;;;;10.10;6.53;;;6.70;99.90;;;;;;4957449;29;20053;-62
2022/04/15 02:39:17;;;;;;;9.65;7.00;;;6.60;99.90;;;;;;4940698;29;20126;-62
2022/04/15 02:41:42;;;;;;;15.60;7.28;;;7.00;99.90;;;;;;4940475;29;20043;-62
2022/04/15 02:44:08;;;;;;;10.02;6.88;;;6.70;99.90;;;;;;4957645;28;20043;-62
2022/04/15 02:46:35;;;;;;;10.10;7.13;;;6.80;99.90;;;;;;4973932;28;20074;-62
2022/04/15 02:49:01;;;;;;;11.00;6.78;;;6.80;99.90;;;;;;4976823;28;20046;-62
2022/04/15 02:51:27;;;;;;;9.27;7.18;;;6.80;99.90;;;;;;4976747;28;20078;-62
2022/04/15 02:53:52;;;;;;;8.13;7.03;;;6.70;99.90;;;;;;4959324;28;20066;-62
2022/04/15 02:56:18;;;;;;;9.13;6.35;;;6.80;99.90;;;;;;4976854;28;20511;-62
2022/04/15 02:58:43;;;;;;;10.40;7.78;;;6.90;99.90;;;;;;4959657;28;20055;-62
2022/04/15 03:01:09;;;;;;;16.00;8.25;;;7.00;99.90;;;;;;4976576;28;20043;-62
2022/04/15 03:03:34;;;;;;;13.77;7.22;;;6.80;99.90;;;;;;4976504;28;20402;-62
2022/04/15 03:06:02;;;;;;;11.35;7.95;;;7.00;99.90;;;;;;4976557;28;20058;-62
2022/04/15 03:08:30;;;;;;;13.40;7.82;;;7.10;99.90;;;;;;4943320;28;20050;-62
2022/04/15 03:10:57;;;;;;;12.13;7.13;;;7.10;99.90;;;;;;4976615;28;20507;-62
2022/04/15 03:13:23;;;;;;;11.40;7.63;;;7.10;99.90;;;;;;4976457;28;20065;-63
2022/04/15 03:15:48;;;;;;;12.32;7.47;;;7.10;99.90;;;;;;4959201;28;20489;-61
2022/04/15 03:18:14;;;;;;;11.07;7.28;;;7.10;99.90;;;;;;4976344;28;20042;-61
2022/04/15 03:20:40;;;;;;;11.07;7.35;;;7.20;99.90;;;;;;4976219;28;20487;-61
2022/04/15 03:23:06;;;;;;;13.27;7.20;;;7.30;99.90;;;;;;4976114;28;20039;-61
2022/04/15 03:25:31;;;;;;;10.60;7.15;;;7.30;99.90;;;;;;4976179;28;20061;-61
2022/04/15 03:27:58;;;;;;;9.18;7.15;;;7.20;99.90;;;;;;4976236;28;20041;-61
2022/04/15 03:30:24;;;;;;;14.10;8.27;;;7.20;99.90;;;;;;4975376;28;20451;-61
2022/04/15 03:32:52;;;;;;;16.42;7.82;;;7.30;99.90;;;;;;4976011;28;20108;-61
2022/04/15 03:35:20;;;;;;;10.68;7.55;;;7.30;99.90;;;;;;4958311;28;20039;-61
2022/04/15 03:37:52;;;;;;;11.55;8.77;;;7.30;99.90;;;;;;4958601;28;20097;-61
2022/04/15 03:40:19;;;;;;;11.05;7.72;;;7.40;99.90;;;;;;4976085;28;20034;-61
2022/04/15 03:42:46;;;;;;;9.05;7.45;;;;;;;;;;4975902;28;20042;-61
2022/04/15 03:45:14;;;;;;;12.98;8.23;;;7.50;99.90;;;;;;4975786;28;20035;-61
2022/04/15 03:47:40;;;;;;;14.68;8.80;;;7.50;99.90;;;;;;4975842;28;20043;-61
2022/04/15 03:50:06;;;;;;;10.77;7.30;;;7.40;99.90;;;;;;4975714;28;20042;-61
2022/04/15 03:52:38;;;;;;;11.63;8.35;;;7.40;99.90;;;;;;4958195;28;20051;-61
2022/04/15 03:55:05;;;;;;;19.05;8.65;;;7.50;99.90;;;;;;4975874;28;20114;-61
2022/04/15 03:57:31;;;;;;;12.68;7.53;;;7.50;99.90;;;;;;4975391;28;20101;-61
2022/04/15 03:59:56;;;;;;;10.27;7.85;;;7.60;99.90;;;;;;4975540;28;20038;-61
2022/04/15 04:02:22;;;;;;;9.32;6.63;;;7.50;99.90;;;;;;4975591;28;20047;-61
2022/04/15 04:04:47;;;;;;;16.40;7.90;;;7.60;99.90;;;;;;4975254;28;20059;-61
2022/04/15 04:07:15;;;;;;;9.85;7.15;;;7.70;99.90;;;;;;4975338;28;20039;-61
2022/04/15 04:09:41;;;;;;;14.27;8.40;;;7.70;99.90;;;;;;4975562;28;20043;-61
2022/04/15 04:12:07;;;;;;;10.00;7.22;;;7.60;99.90;;;;;;4975130;28;20042;-61
2022/04/15 04:14:32;;;;;;;11.05;7.50;;;7.70;99.90;;;;;;4975354;28;20544;-61
2022/04/15 04:16:58;;;;;;;12.25;6.90;;;7.80;99.90;;;;;;4975167;28;20042;-61
2022/04/15 04:19:23;;;;;;;10.02;7.65;;;7.80;99.90;;;;;;4975205;28;20039;-61
2022/04/15 04:21:49;;;;;;;11.43;7.72;;;7.80;99.90;;;;;;4975049;28;20051;-61
2022/04/15 04:24:14;;;;;;;12.25;7.85;;;7.70;99.90;;;;;;4975055;28;20057;-61
2022/04/15 04:26:40;;;;;;;11.05;7.78;;;7.90;99.90;;;;;;4974955;28;20047;-61
2022/04/15 04:29:05;;;;;;;10.30;8.52;;;7.90;99.90;;;;;;4974838;28;20030;-62
2022/04/15 04:31:31;;;;;;;12.18;7.55;;;7.90;99.90;;;;;;4965233;28;20054;-62
2022/04/15 04:33:56;;;;;;;13.15;7.93;;;7.90;99.90;;;;;;4972534;28;20054;-62
2022/04/15 04:36:22;;;;;;;11.07;8.27;;;;;;;;;;4957478;28;20130;-62
2022/04/15 04:38:48;;;;;;;14.85;7.70;;;8.00;99.90;;;;;;4957811;28;20081;-62
2022/04/15 04:41:14;;;;;;;10.02;6.85;;;8.10;99.90;;;;;;4957247;28;20055;-62
2022/04/15 04:43:39;;;;;;;12.35;6.78;;;8.00;99.90;;;;;;4957425;28;20047;-62
2022/04/15 04:46:05;;;;;;;12.77;7.97;;;8.10;99.90;;;;;;4974559;28;20046;-62
2022/04/15 04:48:30;;;;;;;12.85;7.57;;;8.10;99.90;;;;;;4974552;28;20067;-62
2022/04/15 04:50:56;;;;;;;16.10;8.27;;;7.90;99.90;;;;;;4974430;28;20043;-62
2022/04/15 04:53:21;;;;;;;13.63;8.45;;;8.10;99.90;;;;;;4974518;28;20034;-62
2022/04/15 04:55:47;;;;;;;13.57;8.73;;;8.10;99.90;;;;;;4957523;28;20046;-63
2022/04/15 04:58:13;;;;;;;14.45;9.18;;;8.20;99.90;;;;;;4974579;28;20074;-62
2022/04/15 05:00:38;;;;;;;12.10;9.05;;;8.20;99.90;;;;;;4957088;28;20057;-62
2022/04/15 05:03:04;;;;;;;14.95;10.30;;;8.20;99.90;;;;;;4950145;29;20121;-62
2022/04/15 05:05:29;;;;;;;11.95;9.30;;;8.10;99.90;;;;;;4954702;29;20074;-62
2022/04/15 05:07:55;;;;;;;14.73;9.30;;;8.20;99.90;;;;;;4937889;29;20501;-62
2022/04/15 05:10:22;;;;;;;13.85;9.23;;;;;;;;;;4934631;29;20051;-61
2022/04/15 05:12:48;;;;;;;12.32;9.18;;;8.30;99.90;;;;;;4934573;29;20051;-62
2022/04/15 05:15:14;;;;;;;15.07;9.02;;;;;;;;;;4918961;29;20418;-62
2022/04/15 05:17:39;;;;;;;11.15;7.95;;;;;;;;;;4952161;29;20039;-62
2022/04/15 05:20:06;;;;;;;10.27;7.53;;;8.20;99.90;;;;;;4934977;29;20051;-62
2022/04/15 05:22:32;;;;;;;13.13;8.52;;;;;;;;;;4934670;29;20146;-62
2022/04/15 05:24:58;;;;;;;11.70;8.50;;;8.30;99.90;;;;;;4951879;29;20147;-61
2022/04/15 05:27:23;;;;;;;12.07;7.18;;;8.10;99.90;;;;;;4951968;29;20043;-61
2022/04/15 05:29:49;;;;;;;8.52;6.90;;;;;;;;;;4934607;29;20047;-61
2022/04/15 05:32:15;;;;;;;8.85;7.88;;;8.30;99.90;;;;;;4951679;29;20058;-62
2022/04/15 05:34:42;;;;;;;9.50;6.82;;;8.30;99.90;;;;;;4934560;29;20051;-61
2022/04/15 05:37:09;;;;;;;9.60;7.57;;;;;;;;;;4951850;29;20065;-62
2022/04/15 05:39:35;;;;;;;9.25;7.47;;;;;;;;;;4951564;29;20513;-61
2022/04/15 05:42:01;;;;;;;8.82;7.10;;;;;;;;;;4951695;29;20086;-61
2022/04/15 05:44:26;;;;;;;7.65;6.70;;;8.30;99.90;;;;;;4934758;28;20050;-61
2022/04/15 05:46:52;;;;;;;9.15;7.93;;;;;;;;;;4953640;28;20047;-62
2022/04/15 05:49:18;;;;;;;8.70;6.70;;;8.30;99.90;;;;;;4970726;28;20090;-62
2022/04/15 05:51:45;;;;;;;9.93;7.10;;;8.20;99.90;;;;;;4970560;28;20043;-62
2022/04/15 05:54:12;;;;;;;8.35;6.93;;;8.30;99.90;;;;;;4955598;28;20059;-61
2022/04/15 05:56:38;;;;;;;11.32;6.82;;;;;;;;;;4942628;28;20371;-62
2022/04/15 05:59:04;;;;;;;9.20;6.88;;;8.10;99.90;;;;;;4976909;28;20043;-62
2022/04/15 06:01:29;;;;;;;10.48;6.45;;;8.30;99.90;;;;;;4977759;28;20074;-62
2022/04/15 06:03:55;;;;;;;9.98;6.95;;;8.40;99.90;;;;;;4959951;28;20066;-62
2022/04/15 06:06:20;;;;;;;10.25;6.72;;;8.40;99.90;;;;;;4976417;28;20050;-63
2022/04/15 06:08:46;;;;;;;8.45;6.78;;;8.40;99.90;;;;;;4959656;28;20129;-62
2022/04/15 06:11:11;;;;;;;8.27;5.78;;;8.30;99.90;;;;;;4959320;28;20090;-63
2022/04/15 06:13:41;;;;;;;7.07;6.35;;;8.50;99.90;;;;;;4959324;28;20174;-62
2022/04/15 06:16:09;;;;;;;9.88;6.05;;;8.60;99.90;;;;;;4955003;28;20516;-63
2022/04/15 06:18:36;;;;;;;7.25;6.05;;;8.30;99.90;;;;;;4956781;28;20066;-62
2022/04/15 06:21:03;;;;;;;6.78;5.50;;;8.40;99.90;;;;;;4956772;28;20078;-63
2022/04/15 06:23:29;;;;;;;8.73;6.15;;;;;;;;;;4957438;28;20544;-62
2022/04/15 06:25:55;;;;;;;7.90;6.07;;;;;;;;;;4976081;28;20042;-63
2022/04/15 06:28:21;;;;;;;7.90;6.63;;;8.60;99.90;;;;;;4943358;28;20465;-63
2022/04/15 06:30:48;;;;;;;8.55;6.32;;;8.50;99.90;;;;;;4956634;28;20043;-65
2022/04/15 06:33:18;;;;;;;6.53;5.47;;;;;;;;;;4952336;28;20401;-65
2022/04/15 06:35:45;;;;;;;8.75;5.40;;;;;;;;;;4959207;28;20535;-65
2022/04/15 06:38:11;;;;;;;6.30;5.45;;;;;;;;;;4968933;28;20408;-64
2022/04/15 06:40:38;;;;;;;6.22;5.38;;;;;;;;;;4952403;28;20042;-63
2022/04/15 06:43:04;;;;;;;7.90;5.65;;;8.40;99.90;;;;;;4969410;28;20046;-62
2022/04/15 06:45:30;;;;;;;6.85;5.78;;;;;;;;;;4969172;28;20159;-62
2022/04/15 06:47:56;;;;;;;6.78;5.45;;;8.40;99.90;;;;;;4952186;28;20140;-62
2022/04/15 06:50:22;;;;;;;5.90;5.30;;;;;;;;;;4969223;28;20516;-63
2022/04/15 06:52:48;;;;;;;5.50;4.13;;;8.50;99.90;;;;;;4969260;28;20057;-62
2022/04/15 06:55:14;;;;;;;5.18;4.28;;;;;;;;;;4969381;28;20042;-63
2022/04/15 06:57:40;;;;;;;7.45;4.10;;;;;;;;;;4951871;28;20058;-62
2022/04/15 07:00:08;;;;;;;6.82;4.28;;;;;;;;;;4969608;28;20083;-63
2022/04/15 07:02:36;;;;;;;5.22;4.10;;;;;;;;;;4940055;28;20545;-63
2022/04/15 07:05:03;;;;;;;5.03;3.50;;;8.60;99.90;;;;;;4947627;28;20053;-63
2022/04/15 07:07:29;;;;;;;4.53;3.50;;;;;;;;;;4965296;28;20073;-62
2022/04/15 07:09:55;;;;;;;3.83;3.47;;;;;;;;;;4948206;28;20053;-63
2022/04/15 07:12:21;;;;;;;5.68;3.92;;;;;;;;;;4947897;28;20078;-62
2022/04/15 07:14:47;;;;;;;7.63;4.22;;;8.70;99.90;;;;;;4945250;28;20043;-63
2022/04/15 07:17:13;;;;;;;5.88;3.50;;;;;;;;;;4962114;28;20046;-62
2022/04/15 07:19:39;;;;;;;5.65;3.92;;;;;;;;;;4965550;28;20046;-63
2022/04/15 07:22:05;;;;;;;4.25;3.85;;;8.50;99.90;;;;;;4964109;28;20042;-62
2022/04/15 07:24:32;;;;;;;5.13;4.40;;;;;;;;;;4963338;28;20089;-62
2022/04/15 07:26:59;;;;;;;5.28;4.70;;;;;;;;;;4963561;28;20115;-63
2022/04/15 07:29:26;;;;;;;5.90;4.80;;;;;;;;;;4963929;28;20046;-63
2022/04/15 07:31:52;;;;;;;8.43;4.65;;;8.50;99.90;;;;;;4960774;28;20043;-62
2022/04/15 07:34:18;;;;;;;6.45;4.80;;;;;;;;;;4963785;28;20078;-64
2022/04/15 07:36:46;;;;;;;7.35;4.93;;;;;;;;;;4936845;28;20485;-63
2022/04/15 07:39:16;;;;;;;7.68;5.70;;;;;;;;;;4960404;28;20057;-63
2022/04/15 07:41:42;;;;;;;7.45;5.20;;;;;;;;;;4945611;28;20047;-63
2022/04/15 07:44:09;;;;;;;8.50;5.70;;;8.80;99.90;;;;;;4966068;28;20269;-64
2022/04/15 07:46:36;;;;;;;8.27;6.13;;;;;;;;;;4966549;28;20054;-63
2022/04/15 07:49:02;;;;;;;10.13;6.47;;;;;;;;;;4949862;28;20053;-64
2022/04/15 07:51:28;;;;;;;8.77;6.60;;;8.80;99.90;;;;;;4949195;28;20051;-64
2022/04/15 07:53:53;;;;;;;13.77;7.35;;;;;;;;;;4967112;28;20514;-64
2022/04/15 07:56:19;;;;;;;9.15;7.60;;;;;;;;;;4950007;28;20054;-63
2022/04/15 07:58:45;;;;;;;10.07;7.18;;;8.70;99.90;;;;;;4933572;28;20501;-63
2022/04/15 08:01:11;;;;;;;10.20;7.05;;;8.80;99.90;;;;;;4969150;28;20050;-63
2022/04/15 08:03:37;;;;;;;12.07;8.27;;;;;;;;;;4956607;28;20089;-64
2022/04/15 08:06:03;;;;;;;11.88;8.75;;;;;;;;;;4949311;28;20109;-64
2022/04/15 08:08:29;;;;;;;12.55;8.65;;;;;;;;;;4949405;28;20065;-64
2022/04/15 08:10:56;;;;;;;13.15;8.45;;;;;;;;;;4966998;28;20420;-63
2022/04/15 08:13:23;;;;;;;12.02;8.80;;;;;;;;;;4949164;28;20105;-64
2022/04/15 08:15:53;;;;;;;12.55;8.90;;;8.90;99.90;;;;;;4966975;28;20510;-63
2022/04/15 08:18:22;;;;;;;11.02;8.20;;;9.00;99.90;;;;;;4961313;28;20046;-63
2022/04/15 08:20:48;;;;;;;16.52;9.57;;;9.00;99.90;;;;;;4956085;28;20521;-63
2022/04/15 08:23:14;;;;;;;13.82;8.63;;;;;;;;;;4965960;28;20085;-62
2022/04/15 08:25:40;;;;;;;16.25;9.25;;;8.90;99.90;;;;;;4940495;28;20453;-62
2022/04/15 08:28:06;;;;;;;14.25;8.93;;;9.20;99.90;;;;;;4966130;28;20035;-63
2022/04/15 08:30:35;;;;;;;15.23;9.00;;;;;;;;;;4948944;28;20445;-63
2022/04/15 08:33:02;;;;;;;13.32;9.10;;;;;;;;;;4966327;28;20126;-63
2022/04/15 08:35:29;;;;;;;16.55;9.45;;;;;;;;;;4949303;28;20047;-63
2022/04/15 08:37:54;;;;;;;17.67;8.55;;;9.30;99.90;;;;;;4966934;28;20053;-63
2022/04/15 08:40:20;;;;;;;16.73;9.02;;;;;;;;;;4967063;28;20461;-63
2022/04/15 08:42:46;;;;;;;14.18;8.95;;;9.50;99.90;;;;;;4982050;28;20894;-64
2022/04/15 08:45:13;;;;;;;12.30;8.68;;;;;;;;;;4964821;28;20184;-63
2022/04/15 08:47:39;;;;;;;14.60;8.88;;;9.40;99.90;;;;;;4942008;29;20414;-63
2022/04/15 08:50:14;;;;;;;14.55;9.65;;;9.80;99.90;;;;;;4942866;28;20050;-64
2022/04/15 08:52:40;;;;;;;17.40;9.27;;;9.50;99.90;;;;;;4951995;28;20105;-64
2022/04/15 08:55:06;;;;;;;14.32;8.52;;;9.70;99.90;;;;;;4936859;29;20047;-64
2022/04/15 08:57:32;;;;;;;13.57;9.20;;;;;;;;;;4954667;28;20074;-63
2022/04/15 08:59:58;;;;;;;12.05;8.50;;;;;;;;;;4946823;28;20607;-64
2022/04/15 09:02:32;;;;;;;14.48;8.90;;;9.50;99.90;;;;;;4962526;28;20051;-63
2022/04/15 09:05:09;;;;;;;12.68;8.10;;;9.90;99.90;;;;;;4953434;28;20145;-63
2022/04/15 09:07:36;;;;;;;12.70;8.27;;;9.80;99.90;;;;;;4954883;28;20043;-64
2022/04/15 09:10:04;;;;;;;15.00;8.35;;;9.90;99.90;;;;;;4946128;28;20050;-64
2022/04/15 09:12:31;;;;;;;9.55;7.57;;;;;;;;;;4954470;28;20043;-63
2022/04/15 09:15:08;;;;;;;13.85;7.22;;;9.90;99.90;;;;;;4936327;28;20114;-63
2022/04/15 09:17:42;;;;;;;13.45;8.77;;;9.80;99.90;;;;;;4953980;28;20446;-64
2022/04/15 09:20:09;;;;;;;15.65;8.18;;;9.80;99.90;;;;;;4952049;28;20110;-64
2022/04/15 09:22:35;;;;;;;17.10;8.48;;;9.80;99.90;;;;;;4959739;28;20077;-65
2022/04/15 09:25:02;;;;;;;13.85;8.43;;;;;;;;;;4960675;28;20710;-63
2022/04/15 09:27:28;;;;;;;16.92;9.82;;;;;;;;;;4943938;28;20559;-63
2022/04/15 09:29:54;;;;;;;13.13;8.20;;;;;;;;;;4945869;28;20085;-63
2022/04/15 09:32:22;;;;;;;11.68;7.28;;;10.10;99.90;;;;;;4949125;28;20572;-63
2022/04/15 09:34:54;;;;;;;11.48;6.93;;;10.10;99.90;;;;;;4955422;28;20509;-63
2022/04/15 09:37:21;;;;;;;12.65;7.05;;;10.10;99.90;;;;;;4949749;28;20075;-65
2022/04/15 09:40:09;;;;;;;14.45;7.40;;;10.10;99.90;;;;;;4943239;28;20481;-64
2022/04/15 09:42:36;;;;;;;11.07;6.55;;;10.30;99.90;;;;;;4961293;28;20059;-65
2022/04/15 09:45:15;;;;;;;6.82;5.25;;;10.40;99.90;;;;;;4952753;28;20047;-64
2022/04/15 09:47:42;;;;;;;11.70;5.15;;;10.30;99.90;;;;;;4932786;29;20058;-65
2022/04/15 09:50:20;;;;;;;8.20;5.35;;;10.40;99.90;;;;;;4970178;28;20042;-64
2022/04/15 09:52:46;;;;;;;10.90;7.13;;;;;;;;;;4970958;28;20054;-65
2022/04/15 09:55:15;;;;;;;8.98;5.78;;;10.50;99.90;;;;;;4934575;28;20050;-65
2022/04/15 09:57:42;;;;;;;8.00;5.60;;;;;;;;;;4952892;28;20050;-64
2022/04/15 10:00:11;;;;;;;9.38;5.30;;;;;;;;;;4948314;28;20512;-64
2022/04/15 10:02:41;;;;;;;9.05;5.35;;;10.60;99.90;;;;;;4928709;28;20861;-63
2022/04/15 10:05:08;;;;;;;9.23;5.15;;;;;;;;;;4929109;28;20530;-64
2022/04/15 10:07:34;;;;;;;8.63;4.80;;;;;;;;;;4929759;28;20089;-64
2022/04/15 10:10:01;;;;;;;10.38;4.50;;;;;;;;;;4927113;28;20505;-64
2022/04/15 10:12:28;;;;;;;8.38;4.53;;;10.90;99.90;;;;;;4927129;28;20047;-64
2022/04/15 10:14:55;;;;;;;8.05;4.35;;;;;;;;;;4933636;28;20113;-64
2022/04/15 10:17:23;;;;;;;8.60;5.03;;;;;;;;;;4933813;28;20208;-63
2022/04/15 10:19:49;;;;;;;7.28;4.53;;;11.10;99.90;;;;;;4929686;28;20458;-63
2022/04/15 10:22:16;;;;;;;9.68;5.07;;;11.10;99.90;;;;;;4948623;28;20477;-64
2022/04/15 10:24:42;;;;;;;9.73;4.82;;;;;;;;;;4930481;28;20508;-64
2022/04/15 10:27:08;;;;;;;7.15;4.63;;;;;;;;;;4932770;28;20071;-63
2022/04/15 10:29:33;;;;;;;8.45;4.53;;;;;;;;;;4951356;28;20473;-65
2022/04/15 10:32:12;;;;;;;8.07;4.88;;;11.30;99.90;;;;;;4926505;28;20043;-65
2022/04/15 10:34:46;;;;;;;8.38;5.10;;;11.50;99.90;;;;;;4929200;28;20118;-64
2022/04/15 10:37:12;;;;;;;9.02;5.07;;;;;;;;;;4931530;28;20058;-64
2022/04/15 10:39:48;;;;;;;7.88;4.68;;;11.50;99.90;;;;;;4948568;28;20050;-65
2022/04/15 10:42:18;;;;;;;8.82;4.78;;;11.60;99.90;;;;;;4931297;28;20055;-65
2022/04/15 10:44:45;;;;;;;8.27;4.35;;;;;;;;;;4916612;28;20086;-64
2022/04/15 10:47:19;;;;;;;7.68;4.70;;;12.10;99.90;;;;;;4961951;28;20046;-64
2022/04/15 10:50:06;;;;;;;8.70;4.30;;;11.90;99.90;;;;;;4943013;28;20043;-65
2022/04/15 10:52:34;;;;;;;9.32;5.07;;;12.30;99.90;;;;;;4937853;28;20360;-65
2022/04/15 10:55:10;;;;;;;9.38;4.78;;;12.20;99.90;;;;;;4965475;28;20074;-65
2022/04/15 10:57:40;;;;;;;7.50;5.35;;;12.40;99.90;;;;;;4958360;28;20520;-65
2022/04/15 11:03:31;;;;;;;5.97;4.75;;;12.30;99.90;;;;;;4953517;28;20089;-65
2022/04/15 11:06:04;;;;;;;8.35;4.20;;;12.30;99.90;;;;;;4971538;28;20157;-64
2022/04/15 11:08:48;;;;;;;6.07;4.35;;;12.30;99.90;;;;;;4954510;28;20050;-64
2022/04/15 11:11:14;;;;;;;6.65;4.30;;;;;;;;;;4990586;28;20046;-64
2022/04/15 11:13:40;;;;;;;8.15;4.35;;;12.30;99.90;;;;;;4990685;28;20057;-63
2022/04/15 11:16:18;;;;;;;8.23;4.97;;;12.00;99.90;;;;;;4973366;28;20050;-64
2022/04/15 11:18:56;;;;;;;8.75;4.15;;;12.10;99.90;;;;;;4958715;28;20051;-64
2022/04/15 11:21:22;;;;;;;8.23;4.35;;;;;;;;;;4953521;28;20075;-64
2022/04/15 11:23:51;;;;;;;8.40;4.63;;;12.20;99.90;;;;;;4971301;28;20050;-64
2022/04/15 11:26:18;;;;;;;7.20;4.55;;;;;;;;;;4954099;28;20050;-65
2022/04/15 11:28:45;;;;;;;9.00;4.85;;;12.30;99.90;;;;;;4971396;28;20886;-64
2022/04/15 11:31:30;;;;;;;9.32;5.35;;;12.30;99.90;;;;;;4972190;28;20050;-63
2022/04/15 11:34:02;;;;;;;9.68;5.25;;;12.20;99.90;;;;;;4987275;28;20122;-65
2022/04/15 11:36:31;;;;;;;9.90;5.47;;;12.20;99.90;;;;;;4954088;28;20034;-64
2022/04/15 11:39:00;;;;;;;10.23;5.78;;;12.10;99.90;;;;;;4945327;28;20039;-64
2022/04/15 11:41:26;;;;;;;7.78;4.80;;;12.20;99.90;;;;;;4956562;28;20043;-65
2022/04/15 11:43:59;;;;;;;7.68;4.70;;;12.30;99.90;;;;;;4941421;28;20065;-65
2022/04/15 11:46:25;;;;;;;5.78;4.72;;;;;;;;;;4954144;28;20047;-64
2022/04/15 11:48:51;;;;;;;8.90;5.55;;;;;;;;;;4953594;28;20043;-65
2022/04/15 11:51:22;;;;;;;9.85;6.28;;;;;;;;;;4936238;29;20055;-65
2022/04/15 11:53:49;;;;;;;8.88;4.82;;;;;;;;;;4943667;28;20145;-65
2022/04/15 11:56:15;;;;;;;9.45;5.68;;;;;;;;;;4973620;28;20042;-65
2022/04/15 11:58:43;;;;;;;9.40;6.22;;;;;;;;;;4942326;29;20070;-65
2022/04/15 12:01:09;;;;;;;10.52;6.15;;;11.80;99.90;;;;;;4954879;28;20042;-65
2022/04/15 12:03:41;;;;;;;10.48;5.55;;;11.80;99.90;;;;;;4938875;28;20046;-65
2022/04/15 12:06:09;;;;;;;8.48;5.57;;;;;;;;;;4937476;28;20116;-64
2022/04/15 12:08:34;;;;;;;9.05;5.38;;;11.80;99.90;;;;;;4953477;28;20047;-64
2022/04/15 12:11:01;;;;;;;11.77;5.45;;;11.90;99.90;;;;;;4937502;28;20039;-64
2022/04/15 12:13:28;;;;;;;11.70;6.10;;;;;;;;;;4954209;28;20050;-63
2022/04/15 12:15:53;;;;;;;9.85;4.75;;;11.90;99.90;;;;;;4935932;28;20126;-64
2022/04/15 12:18:19;;;;;;;8.05;5.18;;;12.20;99.90;;;;;;4939748;28;20114;-64
2022/04/15 12:20:44;;;;;;;7.30;5.00;;;12.10;99.90;;;;;;4936226;28;20094;-64
2022/04/15 12:23:13;;;;;;;8.88;4.82;;;12.00;99.90;;;;;;4937026;28;20494;-65
2022/04/15 12:31:38;;;;;;;7.18;4.20;;;12.20;99.90;;;;;;4951179;28;20315;-65
2022/04/15 12:34:04;;;;;;;7.28;5.30;;;;;;;;;;4922014;28;20412;-64
2022/04/15 12:36:45;;;;;;;9.48;6.05;;;12.20;99.90;;;;;;4952900;28;20047;-65
2022/04/15 12:39:14;;;;;;;8.10;4.65;;;12.30;99.90;;;;;;4955041;28;20545;-65
2022/04/15 12:41:39;;;;;;;5.80;4.55;;;;;;;;;;4940882;28;20043;-65
2022/04/15 12:44:17;;;;;;;8.20;5.45;;;12.40;99.90;;;;;;4952878;28;20486;-64
2022/04/15 12:46:44;;;;;;;9.38;5.53;;;12.30;99.90;;;;;;4938956;28;20043;-65
2022/04/15 12:49:30;;;;;;;9.00;5.72;;;12.60;99.90;;;;;;4936764;28;20090;-65
2022/04/15 12:52:16;;;;;;;9.43;5.72;;;12.50;99.90;;;;;;4952592;28;20122;-65
2022/04/15 12:55:03;;;;;;;8.43;5.18;;;12.30;99.90;;;;;;4936094;28;20043;-65
2022/04/15 12:57:37;;;;;;;8.18;5.43;;;12.30;99.90;;;;;;4936956;28;20078;-64
2022/04/15 13:00:11;;;;;;;7.28;4.82;;;12.30;99.90;;;;;;4935456;28;20437;-65
2022/04/15 13:02:38;;;;;;;11.75;6.00;;;12.50;99.90;;;;;;4936438;28;20051;-65
2022/04/15 13:05:06;;;;;;;7.88;4.50;;;12.60;99.90;;;;;;4953406;28;20130;-65
2022/04/15 13:07:36;;;;;;;8.38;5.53;;;12.60;99.90;;;;;;4952443;28;20480;-66
2022/04/15 13:10:02;;;;;;;6.13;5.50;;;12.50;99.90;;;;;;4936666;29;20047;-65
2022/04/15 13:12:28;;;;;;;8.82;5.07;;;;;;;;;;4935680;29;20075;-65
2022/04/15 13:14:54;;;;;;;7.43;4.97;;;;;;;;;;4968351;28;20039;-65
2022/04/15 13:17:20;;;;;;;11.00;5.03;;;;;;;;;;4938957;28;20054;-65
2022/04/15 13:19:47;;;;;;;9.20;5.70;;;12.30;99.90;;;;;;4972520;28;20055;-65
2022/04/15 13:22:14;;;;;;;8.73;6.00;;;12.30;99.90;;;;;;4971940;28;20043;-64
2022/04/15 13:24:40;;;;;;;12.98;6.18;;;12.20;99.90;;;;;;4950745;28;20097;-65
2022/04/15 13:27:06;;;;;;;7.70;6.15;;;;;;;;;;4954272;28;20047;-65